Latest Weather Observations for Archerfield

IDQ60901

Issued at 5:01 am EST Saturday 23 May 2015 (issued every 10 minutes, with the page automatically refreshed every 10 minutes)

About weather observations | Map of Brisbane area stations | Latest observations for Brisbane area | Other Formats
Station Details ID: 040211 Name: ARCHERFIELD AIRPORT Lat: -27.57 Lon: 153.01 Height: 12.5 m
Data from the previous 72 hours. | See also: Recent months at Archerfield
Date/Time
EST
Tmp

°C
App
Tmp
°C
Dew
Point
°C
Rel
Hum
%
Delta-T

°C
Wind Press
QNH
hPa
Press
MSL
hPa
Rain
since
9 am
mm
Dir
 
Spd
km/h
Gust
km/h
Spd
kts
Gust
kts
23/05:00am 14.8 11.0 9.0 68 2.9 SSW 19 24 10 13 1020.2 1020.1 0.0
23/04:30am 15.0 11.6 9.1 68 3.0 SSW 17 28 9 15 1020.1 1020.0 0.0
23/04:14am 14.7 11.7 9.3 70 2.8 SW 15 22 8 12 1019.9 1019.8 0.0
23/04:00am 14.4 11.9 9.6 73 2.5 SW 13 20 7 11 1019.9 1019.8 0.0
23/03:30am 12.3 10.4 9.0 80 1.7 WSW 9 11 5 6 1019.9 1019.8 0.0
23/03:13am 12.5 10.3 9.3 81 1.6 WSW 11 13 6 7 1020.0 1019.9 0.0
23/03:00am 12.5 10.3 9.3 81 1.6 WSW 11 13 6 7 1020.0 1019.9 0.0
23/02:30am 13.3 10.4 9.5 78 1.9 WSW 15 19 8 10 1019.8 1019.7 0.0
23/02:00am 13.3 10.8 9.7 79 1.8 WSW 13 17 7 9 1019.8 1019.7 0.0
23/01:30am 13.3 10.7 9.5 78 1.9 WSW 13 17 7 9 1019.9 1019.8 0.0
23/01:00am 13.7 11.2 9.7 77 2.0 W 13 19 7 10 1019.8 1019.7 0.0
23/12:30am 13.8 11.3 9.8 77 2.1 WSW 13 17 7 9 1019.7 1019.6 0.0
23/12:00am 13.6 11.1 9.6 77 2.0 WSW 13 17 7 9 1019.5 1019.4 0.0
 
Date/Time
EST
Tmp

°C
App
Tmp
°C
Dew
Point
°C
Rel
Hum
%
Delta-T

°C
Wind Press
QNH
hPa
Press
MSL
hPa
Rain
since
9 am
mm
Dir
 
Spd
km/h
Gust
km/h
Spd
kts
Gust
kts
22/11:30pm 13.3 10.3 9.4 77 2.0 WSW 15 20 8 11 1019.5 1019.4 0.0
22/11:00pm 13.3 11.0 9.0 75 2.2 WSW 11 20 6 11 1019.5 1019.4 0.0
22/10:30pm 13.6 9.6 9.1 74 2.3 W 20 28 11 15 1019.3 1019.2 0.0
22/10:00pm 13.8 9.8 9.0 73 2.4 W 20 30 11 16 1019.4 1019.3 0.0
22/09:30pm 14.0 10.5 8.8 71 2.6 W 17 24 9 13 1019.4 1019.3 0.0
22/09:00pm 13.7 10.2 8.7 72 2.5 W 17 24 9 13 1019.0 1018.9 0.0
22/08:30pm 14.0 9.9 8.6 70 2.7 W 20 28 11 15 1018.8 1018.7 0.0
22/08:00pm 14.2 10.0 8.4 68 2.9 W 20 28 11 15 1018.5 1018.4 0.0
22/07:30pm 14.6 10.4 8.1 65 3.2 W 20 26 11 14 1018.3 1018.2 0.0
22/07:00pm 14.6 10.9 8.1 65 3.2 W 17 20 9 11 1017.7 1017.6 0.0
22/06:30pm 15.1 11.0 7.9 62 3.6 W 19 28 10 15 1017.4 1017.3 0.0
22/06:00pm 15.3 11.6 7.8 61 3.7 W 17 22 9 12 1017.1 1017.0 0.0
22/05:30pm 16.2 10.7 7.4 56 4.4 W 26 30 14 16 1016.3 1016.2 0.0
22/05:00pm 16.7 12.5 7.4 54 4.6 WSW 19 26 10 14 1016.3 1016.2 0.0
22/04:30pm 18.0 12.3 6.5 47 5.7 WSW 26 39 14 21 1016.2 1016.1 0.0
22/04:00pm 18.5 11.8 7.3 48 5.7 WSW 32 44 17 24 1015.4 1015.3 0.0
22/03:30pm 19.1 11.8 7.2 46 6.0 W 35 46 19 25 1015.1 1015.0 0.0
22/03:00pm 19.3 11.6 7.1 45 6.2 W 37 48 20 26 1014.9 1014.8 0.0
22/02:42pm 19.7 13.3 6.8 43 6.5 WSW 30 48 16 26 1014.9 1014.8 0.0
22/02:30pm 19.3 11.8 6.4 43 6.4 WSW 35 44 19 24 1014.9 1014.8 0.0
22/02:00pm 19.7 11.9 6.8 43 6.5 W 37 50 20 27 1015.3 1015.2 0.0
22/01:30pm 19.2 11.1 7.0 45 6.2 W 39 52 21 28 1015.2 1015.1 0.0
22/01:00pm 19.0 12.2 7.1 46 6.0 W 32 44 17 24 1015.6 1015.5 0.0
22/12:54pm 18.9 11.2 7.0 46 6.0 W 37 56 20 30 1015.7 1015.6 0.0
22/12:30pm 19.0 9.8 7.8 48 5.7 W 46 59 25 32 1015.5 1015.4 0.0
22/12:05pm 18.7 11.2 7.8 49 5.6 W 37 56 20 30 1015.9 1015.8 0.0
22/12:00pm 19.1 12.0 8.1 49 5.7 W 35 52 19 28 1016.1 1016.0 0.0
22/11:30am 18.4 10.8 7.5 49 5.5 W 37 50 20 27 1016.3 1016.2 0.0
22/11:00am 18.1 10.2 7.8 51 5.2 W 39 52 21 28 1016.5 1016.4 0.0
22/10:30am 18.0 11.6 8.6 54 4.9 W 32 39 17 21 1016.9 1016.8 0.0
22/10:00am 17.9 12.4 9.3 57 4.5 W 28 39 15 21 1017.4 1017.3 0.0
22/09:30am 17.2 11.4 9.4 60 4.1 W 30 41 16 22 1017.5 1017.4 0.0
22/09:00am 16.6 10.4 9.3 62 3.8 W 32 46 17 25 1017.3 1017.2 3.2
22/08:30am 15.9 10.7 8.9 63 3.6 W 26 37 14 20 1017.1 1017.0 3.2
22/08:00am 15.5 11.6 9.4 67 3.1 W 20 32 11 17 1016.9 1016.8 3.2
22/07:30am 15.5 14.2 11.3 76 2.3 WNW 9 13 5 7 1016.7 1016.6 3.2
22/07:00am 13.8 13.5 11.5 86 1.2 NNW 4 7 2 4 1016.3 1016.2 3.2
22/06:30am 13.8 12.9 11.5 86 1.2 NNW 7 9 4 5 1016.1 1016.0 3.2
22/06:00am 14.7 14.2 12.2 85 1.4 WNW 6 11 3 6 1016.2 1016.1 3.2
22/05:30am 15.4 14.6 12.9 85 1.4 NW 9 17 5 9 1015.9 1015.8 3.2
22/05:00am 16.0 15.8 13.5 85 1.4 NW 7 11 4 6 1015.7 1015.6 3.2
22/04:30am 16.4 14.4 13.9 85 1.4 W 17 24 9 13 1015.7 1015.6 3.2
22/04:00am 16.3 14.4 14.1 87 1.2 W 17 22 9 12 1015.5 1015.4 3.2
22/03:30am 16.6 15.4 14.1 85 1.4 W 13 20 7 11 1015.6 1015.5 3.2
22/03:00am 16.4 16.3 13.9 85 1.4 NW 7 13 4 7 1015.6 1015.5 3.2
22/02:30am 16.9 17.0 14.0 83 1.6 W 6 11 3 6 1015.7 1015.6 3.2
22/02:00am 16.8 17.3 14.1 84 1.5 NW 4 11 2 6 1015.8 1015.7 3.2
22/01:30am 16.8 16.8 14.3 85 1.4 WNW 7 15 4 8 1016.1 1016.0 3.2
22/01:00am 16.4 16.4 14.2 87 1.3 NW 7 11 4 6 1016.5 1016.4 3.2
22/12:30am 16.3 15.6 14.3 88 1.1 WNW 11 17 6 9 1016.5 1016.4 3.2
22/12:00am 16.3 16.0 14.3 88 1.1 NW 9 17 5 9 1017.1 1017.0 3.2
 
Date/Time
EST
Tmp

°C
App
Tmp
°C
Dew
Point
°C
Rel
Hum
%
Delta-T

°C
Wind Press
QNH
hPa
Press
MSL
hPa
Rain
since
9 am
mm
Dir
 
Spd
km/h
Gust
km/h
Spd
kts
Gust
kts
21/11:30pm 16.1 15.5 14.5 90 0.9 NW 11 13 6 7 1017.2 1017.1 3.0
21/11:00pm 16.3 15.4 14.8 91 0.9 W 13 17 7 9 1017.5 1017.4 2.6
21/10:30pm 16.6 16.4 14.8 89 1.0 W 9 15 5 8 1017.9 1017.8 2.2
21/10:00pm 16.8 16.3 14.8 88 1.2 W 11 13 6 7 1018.1 1018.0 1.8
21/09:30pm 17.2 16.4 15.0 87 1.3 WSW 13 17 7 9 1018.2 1018.1 1.0
21/09:00pm 17.7 17.2 15.0 84 1.6 WSW 11 13 6 7 1017.8 1017.7 0.4
21/08:30pm 18.3 16.6 14.6 79 2.1 SW 17 19 9 10 1017.4 1017.3 0.0
21/08:00pm 18.9 18.7 14.6 76 2.5 WSW 9 13 5 7 1017.5 1017.4 0.0
21/07:30pm 19.8 19.4 14.0 69 3.3 WSW 9 15 5 8 1017.6 1017.5 0.0
21/07:00pm 20.3 19.9 14.2 68 3.5 WSW 9 13 5 7 1017.4 1017.3 0.0
21/06:30pm 20.5 20.0 13.9 66 3.8 WSW 9 13 5 7 1017.3 1017.2 0.0
21/06:00pm 20.7 19.8 13.6 64 4.1 SW 11 15 6 8 1017.1 1017.0 0.0
21/05:30pm 21.1 18.9 14.3 65 4.0 SW 19 24 10 13 1017.0 1016.9 0.0
21/05:00pm 20.9 20.3 15.7 72 3.1 WSW 13 20 7 11 1016.9 1016.8 0.0
21/04:30pm 21.1 20.1 15.6 71 3.3 W 15 19 8 10 1016.7 1016.6 0.0
21/04:00pm 21.4 19.8 16.1 72 3.2 W 19 26 10 14 1016.4 1016.3 0.0
21/03:30pm 21.9 21.1 16.2 70 3.4 W 15 19 8 10 1016.0 1015.9 0.0
21/03:00pm 22.1 21.8 16.4 70 3.5 WNW 13 19 7 10 1015.8 1015.7 0.0
21/02:30pm 22.7 22.2 16.9 70 3.6 W 15 20 8 11 1016.0 1015.9 0.0
21/02:00pm 23.1 22.0 17.3 70 3.6 W 19 24 10 13 1015.7 1015.6 0.0
21/01:30pm 23.3 22.2 17.7 71 3.5 W 20 30 11 16 1015.7 1015.6 0.0
21/01:00pm 23.7 22.5 17.4 68 3.9 WSW 20 28 11 15 1016.2 1016.1 0.0
21/12:30pm 24.2 23.5 17.4 65 4.2 WSW 17 22 9 12 1016.5 1016.4 0.0
21/12:00pm 24.1 23.3 17.1 65 4.3 W 17 22 9 12 1016.9 1016.8 0.0
21/11:30am 23.8 24.2 18.2 71 3.5 W 13 19 7 10 1017.6 1017.5 0.0
21/11:00am 22.8 23.3 17.5 72 3.3 W 11 15 6 8 1017.9 1017.8 0.0
21/10:30am 22.6 23.7 17.9 75 2.9 WNW 9 15 5 8 1018.6 1018.5 0.0
21/10:00am 21.9 23.7 18.7 82 2.0 W 7 11 4 6 1018.8 1018.7 0.0
21/09:30am 20.5 22.2 18.4 88 1.3 W 7 11 4 6 1019.1 1019.0 0.0
21/09:00am 19.4 21.9 18.1 92 0.8 NNW 2 7 1 4 1019.0 1018.9 0.0
21/08:52am 19.4 21.6 18.4 94 0.6 NNW 4 6 2 3 1018.8 1018.7 0.0
21/08:38am 18.7 20.4 18.0 96 0.4 WNW 6 7 3 4 1018.8 1018.7 0.0
21/08:32am 18.5 20.1 17.8 96 0.4 W 6 7 3 4 1018.9 1018.8 0.0
21/08:30am 18.5 20.0 18.0 97 0.3 W 7 7 4 4 1018.9 1018.8 0.0
21/08:06am 18.1 20.8 17.8 98 0.2 CALM 0 4 0 2 1018.9 1018.8 0.0
21/08:00am 18.0 20.3 17.7 98 0.2 W 2 6 1 3 1018.8 1018.7 0.0
21/07:30am 17.8 19.1 17.5 98 0.2 W 7 9 4 5 1018.9 1018.8 0.0
21/07:00am 17.8 19.3 17.5 98 0.2 WSW 6 9 3 5 1018.7 1018.6 0.0
21/06:30am 17.6 19.0 17.3 98 0.2 SW 6 7 3 4 1018.3 1018.2 0.0
21/06:00am 17.5 18.6 17.2 98 0.2 WSW 7 9 4 5 1018.2 1018.1 0.0
21/05:30am 17.5 18.3 17.2 98 0.2 SW 9 11 5 6 1017.6 1017.5 0.0
21/05:00am 17.6 20.1 17.3 98 0.2 CALM 0 0 0 0 1017.4 1017.3 0.0
21/04:30am 17.7 20.3 17.4 98 0.2 CALM 0 0 0 0 1017.3 1017.2 0.0
21/04:00am 17.7 19.5 17.4 98 0.2 SW 4 7 2 4 1017.7 1017.6 0.0
21/03:30am 17.6 19.7 17.1 97 0.3 WSW 2 7 1 4 1017.8 1017.7 0.0
21/03:00am 16.8 18.2 16.3 97 0.3 SW 4 7 2 4 1017.6 1017.5 0.0
21/02:49am 16.7 17.6 16.2 97 0.3 WSW 6 7 3 4 1017.7 1017.6 0.0
21/02:42am 16.7 17.6 16.1 96 0.4 WSW 6 7 3 4 1017.7 1017.6 0.0
21/02:30am 16.6 17.5 16.0 96 0.4 SW 6 7 3 4 1017.8 1017.7 0.0
21/02:00am 17.2 18.1 16.7 97 0.3 SSW 7 7 4 4 1017.9 1017.8 0.0
21/01:35am 17.0 17.9 16.5 97 0.3 SSW 7 9 4 5 1018.1 1018.0 0.0
21/01:30am 17.4 18.6 16.9 97 0.3 S 6 7 3 4 1018.1 1018.0 0.0
21/01:00am 17.0 18.4 16.4 96 0.4 SSW 4 7 2 4 1018.3 1018.2 0.0
21/12:32am 17.2 19.2 15.9 92 0.8 CALM 0 6 0 3 1018.3 1018.2 0.0
21/12:30am 16.9 18.3 15.4 91 0.9 SW 2 6 1 3 1018.4 1018.3 0.0
21/12:00am 18.7 21.0 17.7 94 0.6 N 2 7 1 4 1018.8 1018.7 0.0
 
Date/Time
EST
Tmp

°C
App
Tmp
°C
Dew
Point
°C
Rel
Hum
%
Delta-T

°C
Wind Press
QNH
hPa
Press
MSL
hPa
Rain
since
9 am
mm
Dir
 
Spd
km/h
Gust
km/h
Spd
kts
Gust
kts
20/11:30pm 19.3 21.1 18.3 94 0.6 NE 6 9 3 5 1018.6 1018.5 0.0
20/11:00pm 19.2 20.3 17.9 92 0.8 N 9 13 5 7 1018.7 1018.6 0.0
20/10:30pm 19.6 20.5 18.3 92 0.8 NNE 11 13 6 7 1018.6 1018.5 0.0
20/10:00pm 19.9 21.2 18.4 91 0.9 N 9 13 5 7 1019.0 1018.9 0.0
20/09:30pm 20.0 20.9 18.3 90 1.1 N 11 15 6 8 1019.1 1019.0 0.0
20/09:00pm 20.2 20.8 18.5 90 1.1 N 13 19 7 10 1019.1 1019.0 0.0
20/08:30pm 20.1 20.5 18.2 89 1.2 N 13 19 7 10 1019.0 1018.9 0.0
20/08:00pm 20.2 21.1 18.3 89 1.2 N 11 17 6 9 1018.8 1018.7 0.0
20/07:30pm 19.8 21.4 17.8 88 1.2 ENE 6 7 3 4 1018.7 1018.6 0.0
20/07:00pm 20.1 20.6 17.5 85 1.6 NE 11 13 6 7 1018.4 1018.3 0.0
20/06:30pm 19.9 20.5 16.9 83 1.8 NE 9 11 5 6 1018.2 1018.1 0.0
20/06:00pm 20.6 20.6 17.2 81 2.1 NE 13 15 7 8 1018.1 1018.0 0.0
20/05:30pm 21.2 21.3 17.4 79 2.3 NNE 13 19 7 10 1018.1 1018.0 0.0
20/05:00pm 22.3 22.1 17.7 75 2.8 NE 15 17 8 9 1017.7 1017.6 0.0
20/04:30pm 23.6 25.0 17.8 70 3.6 ESE 7 15 4 8 1017.6 1017.5 0.0
20/04:00pm 23.5 24.7 18.2 72 3.3 SSE 9 13 5 7 1017.4 1017.3 0.0
20/03:30pm 23.7 24.5 17.4 68 3.9 SSW 9 9 5 5 1017.4 1017.3 0.0
20/03:00pm 24.7 27.3 17.4 64 4.5 CALM 0 6 0 3 1017.4 1017.3 0.0
20/02:30pm 24.6 25.9 17.1 63 4.6 NE 6 9 3 5 1017.4 1017.3 0.0
20/02:00pm 25.0 26.5 17.7 64 4.6 W 6 11 3 6 1017.7 1017.6 0.0
20/01:30pm 23.7 24.8 17.0 66 4.1 SW 7 11 4 6 1017.9 1017.8 0.0
20/01:00pm 23.7 25.1 17.7 69 3.7 SW 7 15 4 8 1018.2 1018.1 0.0
20/12:30pm 22.4 23.0 16.7 70 3.5 WSW 9 13 5 7 1018.6 1018.5 0.0
20/12:00pm 22.6 23.9 17.5 73 3.1 S 7 15 4 8 1019.1 1019.0 0.0
20/11:30am 22.5 23.1 16.8 70 3.5 SW 9 17 5 9 1019.7 1019.6 0.0
20/11:00am 22.4 22.6 16.7 70 3.5 WSW 11 17 6 9 1020.1 1020.0 0.0
20/10:30am 22.2 22.2 17.3 74 3.0 SW 13 19 7 10 1020.5 1020.4 0.0
20/10:17am 21.7 21.7 17.1 75 2.8 SW 13 17 7 9 1020.5 1020.4 0.0
20/10:00am 21.2 20.7 17.0 77 2.6 SW 15 19 8 10 1020.7 1020.6 0.0
20/09:30am 21.2 21.7 17.4 79 2.3 SW 11 13 6 7 1020.9 1020.8 0.0
20/09:00am 20.6 21.1 17.4 82 2.0 WNW 11 15 6 8 1020.8 1020.7 0.2
20/08:30am 19.1 19.1 17.1 88 1.2 W 13 19 7 10 1020.8 1020.7 0.2
20/08:23am 19.1 18.6 16.9 87 1.3 W 15 19 8 10 1020.8 1020.7 0.2
20/08:00am 18.8 19.6 17.3 91 0.9 SSW 9 13 5 7 1020.6 1020.5 0.2
20/07:51am 18.7 19.9 17.4 92 0.8 S 7 11 4 6 1020.3 1020.2 0.2
20/07:30am 17.8 19.9 17.2 96 0.4 S 2 7 1 4 1020.4 1020.3 0.2
20/07:00am 16.7 18.9 16.4 98 0.2 CALM 0 0 0 0 1020.3 1020.2 0.2
20/06:30am 16.8 17.7 16.5 98 0.2 SW 7 11 4 6 1020.2 1020.1 0.2
20/06:28am 16.8 17.7 16.5 98 0.2 SW 7 11 4 6 1020.2 1020.1 0.2
20/06:00am 17.0 17.6 16.7 98 0.2 WSW 9 11 5 6 1019.7 1019.6 0.2
20/05:30am 17.1 17.3 16.8 98 0.2 WSW 11 13 6 7 1019.4 1019.3 0.0

Latest Capital City Observations: Canberra | Sydney | Melbourne | Brisbane | Adelaide | Perth | Hobart | Darwin

Other Formats:

Comma delimited format used in spreadsheet applications
http://www.bom.gov.au/fwo/IDQ60901/IDQ60901.94575.axf

JavaScript Object Notation format (JSON) in row-major order
http://www.bom.gov.au/fwo/IDQ60901/IDQ60901.94575.json